sensor_id;sensor_type;location;lat;lon;timestamp;pressure;altitude;pressure_sealevel;temperature;humidity
21730;BME280;11027;51.030;13.812;2022-11-18T00:01:08;98624.44;;;7.43;84.09
21730;BME280;11027;51.030;13.812;2022-11-18T00:03:34;98620.28;;;7.47;84.05
21730;BME280;11027;51.030;13.812;2022-11-18T00:05:59;98628.69;;;7.52;83.97
21730;BME280;11027;51.030;13.812;2022-11-18T00:08:25;98619.50;;;7.53;83.77
21730;BME280;11027;51.030;13.812;2022-11-18T00:10:50;98618.47;;;7.54;83.72
21730;BME280;11027;51.030;13.812;2022-11-18T00:13:16;98620.53;;;7.52;83.64
21730;BME280;11027;51.030;13.812;2022-11-18T00:16:01;98624.72;;;7.54;83.79
21730;BME280;11027;51.030;13.812;2022-11-18T00:18:27;98627.44;;;7.54;83.82
21730;BME280;11027;51.030;13.812;2022-11-18T00:20:53;98621.81;;;7.56;83.51
21730;BME280;11027;51.030;13.812;2022-11-18T00:23:18;98620.78;;;7.57;83.74
21730;BME280;11027;51.030;13.812;2022-11-18T00:25:43;98619.13;;;7.56;83.58
21730;BME280;11027;51.030;13.812;2022-11-18T00:28:08;98620.78;;;7.57;83.70
21730;BME280;11027;51.030;13.812;2022-11-18T00:30:34;98620.78;;;7.57;83.82
21730;BME280;11027;51.030;13.812;2022-11-18T00:32:59;98622.84;;;7.55;83.78
21730;BME280;11027;51.030;13.812;2022-11-18T00:35:24;98618.28;;;7.55;83.78
21730;BME280;11027;51.030;13.812;2022-11-18T00:37:49;98619.13;;;7.56;83.87
21730;BME280;11027;51.030;13.812;2022-11-18T00:40:15;98617.41;;;7.55;84.06
21730;BME280;11027;51.030;13.812;2022-11-18T00:42:40;98623.69;;;7.55;84.20
21730;BME280;11027;51.030;13.812;2022-11-18T00:45:19;98622.66;;;7.56;84.29
21730;BME280;11027;51.030;13.812;2022-11-18T00:47:45;98622.84;;;7.55;84.22
21730;BME280;11027;51.030;13.812;2022-11-18T00:50:10;98624.53;;;7.56;84.20
21730;BME280;11027;51.030;13.812;2022-11-18T00:52:35;98627.06;;;7.57;84.51
21730;BME280;11027;51.030;13.812;2022-11-18T00:55:01;98627.88;;;7.58;84.41
21730;BME280;11027;51.030;13.812;2022-11-18T00:57:26;98624.53;;;7.56;84.71
21730;BME280;11027;51.030;13.812;2022-11-18T00:59:51;98623.69;;;7.55;84.83
21730;BME280;11027;51.030;13.812;2022-11-18T01:02:16;98620.13;;;7.55;84.87
21730;BME280;11027;51.030;13.812;2022-11-18T01:04:42;98627.25;;;7.56;85.13
21730;BME280;11027;51.030;13.812;2022-11-18T01:07:07;98626.19;;;7.57;85.16
21730;BME280;11027;51.030;13.812;2022-11-18T01:09:32;98629.94;;;7.56;85.81
21730;BME280;11027;51.030;13.812;2022-11-18T01:11:58;98626.19;;;7.57;85.43
21730;BME280;11027;51.030;13.812;2022-11-18T01:14:42;98627.06;;;7.57;85.33
21730;BME280;11027;51.030;13.812;2022-11-18T01:17:07;98629.94;;;7.56;85.44
21730;BME280;11027;51.030;13.812;2022-11-18T01:19:33;98632.66;;;7.56;85.55
21730;BME280;11027;51.030;13.812;2022-11-18T01:21:58;98625.75;;;7.53;85.67
21730;BME280;11027;51.030;13.812;2022-11-18T01:24:30;98628.25;;;7.55;85.75
21730;BME280;11027;51.030;13.812;2022-11-18T01:26:56;98624.53;;;7.56;85.74
21730;BME280;11027;51.030;13.812;2022-11-18T01:29:22;98614.06;;;7.53;85.82
21730;BME280;11027;51.030;13.812;2022-11-18T01:31:47;98609.09;;;7.56;85.89
21730;BME280;11027;51.030;13.812;2022-11-18T01:34:12;98609.94;;;7.57;85.87
21730;BME280;11027;51.030;13.812;2022-11-18T01:36:37;98612.63;;;7.57;86.00
21730;BME280;11027;51.030;13.812;2022-11-18T01:39:03;98610.78;;;7.57;86.00
21730;BME280;11027;51.030;13.812;2022-11-18T01:41:29;98611.63;;;7.58;85.83
21730;BME280;11027;51.030;13.812;2022-11-18T01:46:20;98609.94;;;7.57;85.99
21730;BME280;11027;51.030;13.812;2022-11-18T01:48:49;98621.81;;;7.56;86.06
21730;BME280;11027;51.030;13.812;2022-11-18T01:51:19;98616.41;;;7.56;86.06
21730;BME280;11027;51.030;13.812;2022-11-18T01:53:59;98626.59;;;7.54;86.40
21730;BME280;11027;51.030;13.812;2022-11-18T01:56:32;98617.84;;;7.52;86.28
21730;BME280;11027;51.030;13.812;2022-11-18T01:59:05;98628.69;;;7.52;86.45
21730;BME280;11027;51.030;13.812;2022-11-18T02:01:32;98618.22;;;7.49;86.45
21730;BME280;11027;51.030;13.812;2022-11-18T02:03:57;98621.38;;;7.52;86.48
21730;BME280;11027;51.030;13.812;2022-11-18T02:06:23;98624.28;;;7.51;86.46
21730;BME280;11027;51.030;13.812;2022-11-18T02:08:48;98621.56;;;7.51;86.57
21730;BME280;11027;51.030;13.812;2022-11-18T02:11:15;98618.22;;;7.49;86.56
21730;BME280;11027;51.030;13.812;2022-11-18T02:14:01;98618.63;;;7.46;86.78
21730;BME280;11027;51.030;13.812;2022-11-18T02:16:38;98613.63;;;7.49;86.79
21730;BME280;11027;51.030;13.812;2022-11-18T02:19:27;98609.91;;;7.50;86.71
21730;BME280;11027;51.030;13.812;2022-11-18T02:22:11;98613.22;;;7.46;86.69
21730;BME280;11027;51.030;13.812;2022-11-18T02:30:14;98606.91;;;7.38;87.20
21730;BME280;11027;51.030;13.812;2022-11-18T02:33:05;98606.91;;;7.38;87.45
21730;BME280;11027;51.030;13.812;2022-11-18T02:35:33;98608.13;;;7.36;87.34
21730;BME280;11027;51.030;13.812;2022-11-18T02:38:08;98600.19;;;7.34;87.29
21730;BME280;11027;51.030;13.812;2022-11-18T02:40:38;98603.97;;;7.33;87.06
21730;BME280;11027;51.030;13.812;2022-11-18T02:43:08;98591.00;;;7.29;86.96
21730;BME280;11027;51.030;13.812;2022-11-18T02:45:36;98593.50;;;7.30;86.73
21730;BME280;11027;51.030;13.812;2022-11-18T02:48:07;98596.81;;;7.26;86.66
21730;BME280;11027;51.030;13.812;2022-11-18T02:50:34;98605.13;;;7.24;86.75
21730;BME280;11027;51.030;13.812;2022-11-18T02:53:03;98600.56;;;7.25;86.79
21730;BME280;11027;51.030;13.812;2022-11-18T02:55:33;98601.63;;;7.30;86.50
21730;BME280;11027;51.030;13.812;2022-11-18T02:58:00;98602.28;;;7.32;86.44
21730;BME280;11027;51.030;13.812;2022-11-18T03:00:27;98599.38;;;7.34;86.27
21730;BME280;11027;51.030;13.812;2022-11-18T03:02:52;98595.44;;;7.36;86.15
21730;BME280;11027;51.030;13.812;2022-11-18T03:05:42;98604.81;;;7.40;85.99
21730;BME280;11027;51.030;13.812;2022-11-18T03:08:18;98607.94;;;7.37;85.91
21730;BME280;11027;51.030;13.812;2022-11-18T03:11:02;98601.91;;;7.35;86.25
21730;BME280;11027;51.030;13.812;2022-11-18T03:13:42;98598.13;;;7.36;86.45
21730;BME280;11027;51.030;13.812;2022-11-18T03:16:17;98602.53;;;7.37;86.78
21730;BME280;11027;51.030;13.812;2022-11-18T03:21:40;98607.31;;;7.35;86.85
21730;BME280;11027;51.030;13.812;2022-11-18T03:24:20;98612.72;;;7.35;86.74
21730;BME280;11027;51.030;13.812;2022-11-18T03:26:52;98606.25;;;7.36;86.79
21730;BME280;11027;51.030;13.812;2022-11-18T03:29:25;98603.16;;;7.39;86.85
21730;BME280;11027;51.030;13.812;2022-11-18T03:32:14;98611.94;;;7.41;87.07
21730;BME280;11027;51.030;13.812;2022-11-18T03:34:45;98608.38;;;7.41;87.06
21730;BME280;11027;51.030;13.812;2022-11-18T03:37:13;98609.88;;;7.44;86.95
21730;BME280;11027;51.030;13.812;2022-11-18T03:39:44;98612.75;;;7.42;86.86
21730;BME280;11027;51.030;13.812;2022-11-18T03:42:14;98616.72;;;7.39;86.98
21730;BME280;11027;51.030;13.812;2022-11-18T03:44:53;98619.81;;;7.36;87.21
21730;BME280;11027;51.030;13.812;2022-11-18T03:47:25;98613.53;;;7.29;87.39
21730;BME280;11027;51.030;13.812;2022-11-18T03:50:00;98622.66;;;7.28;87.68
21730;BME280;11027;51.030;13.812;2022-11-18T03:52:30;98625.19;;;7.30;87.74
21730;BME280;11027;51.030;13.812;2022-11-18T03:55:00;98623.94;;;7.32;87.74
21730;BME280;11027;51.030;13.812;2022-11-18T03:57:36;98631.88;;;7.34;87.69
21730;BME280;11027;51.030;13.812;2022-11-18T04:00:09;98639.38;;;7.32;87.59
21730;BME280;11027;51.030;13.812;2022-11-18T04:02:36;98633.91;;;7.25;87.48
21730;BME280;11027;51.030;13.812;2022-11-18T04:05:03;98634.75;;;7.26;87.67
21730;BME280;11027;51.030;13.812;2022-11-18T04:10:16;98633.50;;;7.28;87.24
21730;BME280;11027;51.030;13.812;2022-11-18T04:12:55;98633.50;;;7.28;87.52
21730;BME280;11027;51.030;13.812;2022-11-18T04:15:23;98636.03;;;7.30;87.46
21730;BME280;11027;51.030;13.812;2022-11-18T04:17:48;98634.78;;;7.32;87.36
21730;BME280;11027;51.030;13.812;2022-11-18T04:20:19;98632.72;;;7.34;87.22
21730;BME280;11027;51.030;13.812;2022-11-18T04:22:45;98634.41;;;7.35;87.09
21730;BME280;11027;51.030;13.812;2022-11-18T04:25:10;98638.97;;;7.35;86.78
21730;BME280;11027;51.030;13.812;2022-11-18T04:27:36;98632.72;;;7.34;86.78
21730;BME280;11027;51.030;13.812;2022-11-18T04:30:01;98640.19;;;7.32;86.66
21730;BME280;11027;51.030;13.812;2022-11-18T04:32:27;98644.78;;;7.32;86.76
21730;BME280;11027;51.030;13.812;2022-11-18T04:34:53;98649.38;;;7.31;86.78
21730;BME280;11027;51.030;13.812;2022-11-18T04:37:18;98645.25;;;7.35;86.73
21730;BME280;11027;51.030;13.812;2022-11-18T04:39:43;98650.66;;;7.35;86.59
21730;BME280;11027;51.030;13.812;2022-11-18T04:42:08;98650.84;;;7.34;86.58
21730;BME280;11027;51.030;13.812;2022-11-18T04:44:33;98654.38;;;7.34;86.23
21730;BME280;11027;51.030;13.812;2022-11-18T04:47:02;98647.31;;;7.33;86.02
21730;BME280;11027;51.030;13.812;2022-11-18T04:49:28;98646.66;;;7.31;85.91
21730;BME280;11027;51.030;13.812;2022-11-18T04:51:54;98653.09;;;7.30;85.86
21730;BME280;11027;51.030;13.812;2022-11-18T04:54:20;98650.59;;;7.29;85.58
21730;BME280;11027;51.030;13.812;2022-11-18T04:56:46;98647.84;;;7.22;85.49
21730;BME280;11027;51.030;13.812;2022-11-18T04:59:12;98657.56;;;7.16;85.47
21730;BME280;11027;51.030;13.812;2022-11-18T05:01:38;98653.34;;;7.07;85.06
21730;BME280;11027;51.030;13.812;2022-11-18T05:04:04;98655.72;;;6.95;84.67
21730;BME280;11027;51.030;13.812;2022-11-18T05:06:30;98656.09;;;6.92;84.54
21730;BME280;11027;51.030;13.812;2022-11-18T05:08:57;98659.59;;;6.86;84.37
21730;BME280;11027;51.030;13.812;2022-11-18T05:11:23;98659.78;;;6.85;84.09
21730;BME280;11027;51.030;13.812;2022-11-18T05:14:06;98651.22;;;6.81;84.12
21730;BME280;11027;51.030;13.812;2022-11-18T05:16:32;98659.34;;;6.81;83.73
21730;BME280;11027;51.030;13.812;2022-11-18T05:18:57;98663.91;;;6.80;83.56
21730;BME280;11027;51.030;13.812;2022-11-18T05:21:22;98666.59;;;6.80;83.52
21730;BME280;11027;51.030;13.812;2022-11-18T05:23:48;98658.50;;;6.80;83.39
21730;BME280;11027;51.030;13.812;2022-11-18T05:26:13;98664.31;;;6.77;82.89
21730;BME280;11027;51.030;13.812;2022-11-18T05:28:38;98665.13;;;6.78;82.96
21730;BME280;11027;51.030;13.812;2022-11-18T05:31:10;98676.34;;;6.75;82.76
21730;BME280;11027;51.030;13.812;2022-11-18T05:33:36;98678.41;;;6.73;82.66
21730;BME280;11027;51.030;13.812;2022-11-18T05:36:07;98682.97;;;6.72;82.46
21730;BME280;11027;51.030;13.812;2022-11-18T05:38:33;98682.16;;;6.72;82.47
21730;BME280;11027;51.030;13.812;2022-11-18T05:40:59;98686.72;;;6.71;82.31
21730;BME280;11027;51.030;13.812;2022-11-18T05:43:24;98692.31;;;6.70;82.30
21730;BME280;11027;51.030;13.812;2022-11-18T05:45:50;98692.91;;;6.65;81.89
21730;BME280;11027;51.030;13.812;2022-11-18T05:48:16;98695.16;;;6.61;81.71
21730;BME280;11027;51.030;13.812;2022-11-18T05:50:45;98696.56;;;6.57;81.72
21730;BME280;11027;51.030;13.812;2022-11-18T05:53:12;98695.25;;;6.53;81.75
21730;BME280;11027;51.030;13.812;2022-11-18T05:56:03;98694.44;;;6.53;81.64
21730;BME280;11027;51.030;13.812;2022-11-18T05:58:30;98702.34;;;6.54;81.55
21730;BME280;11027;51.030;13.812;2022-11-18T06:00:58;98710.28;;;6.56;81.67
21730;BME280;11027;51.030;13.812;2022-11-18T06:03:27;98711.31;;;6.55;81.35
21730;BME280;11027;51.030;13.812;2022-11-18T06:05:57;98713.84;;;6.56;81.31
21730;BME280;11027;51.030;13.812;2022-11-18T06:08:25;98722.59;;;6.58;81.23
21730;BME280;11027;51.030;13.812;2022-11-18T06:10:53;98721.97;;;6.56;81.12
21730;BME280;11027;51.030;13.812;2022-11-18T06:13:23;98729.41;;;6.54;81.04
21730;BME280;11027;51.030;13.812;2022-11-18T06:15:49;98730.63;;;6.52;80.77
21730;BME280;11027;51.030;13.812;2022-11-18T06:18:22;98733.16;;;6.53;80.97
21730;BME280;11027;51.030;13.812;2022-11-18T06:20:50;98740.44;;;6.53;80.87
21730;BME280;11027;51.030;13.812;2022-11-18T06:23:17;98747.91;;;6.51;80.78
21730;BME280;11027;51.030;13.812;2022-11-18T06:25:42;98747.44;;;6.47;80.76
21730;BME280;11027;51.030;13.812;2022-11-18T06:28:09;98748.44;;;6.46;80.54
21730;BME280;11027;51.030;13.812;2022-11-18T06:30:37;98750.50;;;6.44;80.51
21730;BME280;11027;51.030;13.812;2022-11-18T06:33:02;98745.09;;;6.44;80.48
21730;BME280;11027;51.030;13.812;2022-11-18T06:35:27;98751.72;;;6.41;80.38
21730;BME280;11027;51.030;13.812;2022-11-18T06:37:53;98758.34;;;6.39;80.16
21730;BME280;11027;51.030;13.812;2022-11-18T06:40:18;98760.00;;;6.40;80.19
21730;BME280;11027;51.030;13.812;2022-11-18T06:42:43;98762.06;;;6.38;80.19
21730;BME280;11027;51.030;13.812;2022-11-18T06:45:27;98762.94;;;6.38;79.76
21730;BME280;11027;51.030;13.812;2022-11-18T06:47:58;98763.59;;;6.40;79.93
21730;BME280;11027;51.030;13.812;2022-11-18T06:50:25;98770.19;;;6.38;79.88
21730;BME280;11027;51.030;13.812;2022-11-18T06:52:50;98770.75;;;6.33;79.73
21730;BME280;11027;51.030;13.812;2022-11-18T06:55:15;98781.97;;;6.30;79.77
21730;BME280;11027;51.030;13.812;2022-11-18T06:57:41;98780.09;;;6.31;79.72
21730;BME280;11027;51.030;13.812;2022-11-18T07:00:06;98782.16;;;6.29;79.47
21730;BME280;11027;51.030;13.812;2022-11-18T07:02:34;98787.72;;;6.27;79.45
21730;BME280;11027;51.030;13.812;2022-11-18T07:05:00;98788.94;;;6.25;79.50
21730;BME280;11027;51.030;13.812;2022-11-18T07:07:25;98794.72;;;6.21;79.43
21730;BME280;11027;51.030;13.812;2022-11-18T07:09:50;98793.06;;;6.20;79.24
21730;BME280;11027;51.030;13.812;2022-11-18T07:12:15;98799.22;;;6.14;79.26
21730;BME280;11027;51.030;13.812;2022-11-18T07:14:41;98805.63;;;6.13;79.28
21730;BME280;11027;51.030;13.812;2022-11-18T07:17:06;98794.16;;;6.11;79.27
21730;BME280;11027;51.030;13.812;2022-11-18T07:19:31;98798.25;;;6.07;79.30
21730;BME280;11027;51.030;13.812;2022-11-18T07:21:56;98804.06;;;6.04;79.09
21730;BME280;11027;51.030;13.812;2022-11-18T07:24:23;98806.84;;;5.96;78.71
21730;BME280;11027;51.030;13.812;2022-11-18T07:26:48;98803.16;;;5.89;78.88
21730;BME280;11027;51.030;13.812;2022-11-18T07:29:14;98802.09;;;5.90;79.03
21730;BME280;11027;51.030;13.812;2022-11-18T07:31:39;98813.78;;;5.90;79.15
21730;BME280;11027;51.030;13.812;2022-11-18T07:34:05;98809.56;;;5.88;78.87
21730;BME280;11027;51.030;13.812;2022-11-18T07:36:30;98799.13;;;5.85;78.84
21730;BME280;11027;51.030;13.812;2022-11-18T07:39:00;98814.03;;;5.80;79.01
21730;BME280;11027;51.030;13.812;2022-11-18T07:41:27;98813.06;;;5.73;79.19
21730;BME280;11027;51.030;13.812;2022-11-18T07:43:54;98808.06;;;5.70;79.04
21730;BME280;11027;51.030;13.812;2022-11-18T07:48:48;98821.91;;;5.67;79.14
21730;BME280;11027;51.030;13.812;2022-11-18T07:51:15;98825.09;;;5.71;79.21
21730;BME280;11027;51.030;13.812;2022-11-18T07:53:41;98827.31;;;5.67;78.88
21730;BME280;11027;51.030;13.812;2022-11-18T07:56:08;98826.31;;;5.68;78.76
21730;BME280;11027;51.030;13.812;2022-11-18T07:58:33;98822.22;;;5.72;78.70
21730;BME280;11027;51.030;13.812;2022-11-18T08:01:08;98835.63;;;5.66;78.56
21730;BME280;11027;51.030;13.812;2022-11-18T08:03:34;98840.38;;;5.64;78.56
21730;BME280;11027;51.030;13.812;2022-11-18T08:06:00;98849.97;;;5.66;78.54
21730;BME280;11027;51.030;13.812;2022-11-18T08:08:26;98852.50;;;5.68;78.46
21730;BME280;11027;51.030;13.812;2022-11-18T08:10:54;98852.84;;;5.65;78.02
21730;BME280;11027;51.030;13.812;2022-11-18T08:13:20;98857.25;;;5.66;77.68
21730;BME280;11027;51.030;13.812;2022-11-18T08:15:46;98857.41;;;5.64;77.38
21730;BME280;11027;51.030;13.812;2022-11-18T08:18:11;98852.84;;;5.65;77.35
21730;BME280;11027;51.030;13.812;2022-11-18T08:20:36;98854.41;;;5.59;77.22
21730;BME280;11027;51.030;13.812;2022-11-18T08:23:01;98859.16;;;5.57;77.51
21730;BME280;11027;51.030;13.812;2022-11-18T08:25:27;98858.13;;;5.58;77.62
21730;BME280;11027;51.030;13.812;2022-11-18T08:27:53;98866.06;;;5.59;77.70
21730;BME280;11027;51.030;13.812;2022-11-18T08:30:18;98864.38;;;5.58;77.74
21730;BME280;11027;51.030;13.812;2022-11-18T08:32:44;98879.38;;;5.61;77.88
21730;BME280;11027;51.030;13.812;2022-11-18T08:35:09;98875.66;;;5.62;77.71
21730;BME280;11027;51.030;13.812;2022-11-18T08:37:34;98868.94;;;5.58;77.20
21730;BME280;11027;51.030;13.812;2022-11-18T08:40:00;98868.56;;;5.61;77.44
21730;BME280;11027;51.030;13.812;2022-11-18T08:42:25;98873.97;;;5.61;77.15
21730;BME280;11027;51.030;13.812;2022-11-18T08:44:51;98882.56;;;5.65;76.86
21730;BME280;11027;51.030;13.812;2022-11-18T08:47:16;98881.06;;;5.62;76.90
21730;BME280;11027;51.030;13.812;2022-11-18T08:49:41;98879.09;;;5.56;76.88
21730;BME280;11027;51.030;13.812;2022-11-18T08:52:07;98887.47;;;5.61;77.07
21730;BME280;11027;51.030;13.812;2022-11-18T08:54:32;98884.44;;;5.64;76.92
21730;BME280;11027;51.030;13.812;2022-11-18T08:56:58;98893.19;;;5.66;76.92
21730;BME280;11027;51.030;13.812;2022-11-18T08:59:23;98888.44;;;5.68;76.73
21730;BME280;11027;51.030;13.812;2022-11-18T09:01:48;98899.97;;;5.62;76.53
21730;BME280;11027;51.030;13.812;2022-11-18T09:04:13;98891.72;;;5.55;76.67
21730;BME280;11027;51.030;13.812;2022-11-18T09:06:39;98896.78;;;5.58;76.67
21730;BME280;11027;51.030;13.812;2022-11-18T09:09:05;98903.03;;;5.59;76.55
21730;BME280;11027;51.030;13.812;2022-11-18T09:11:30;98897.13;;;5.55;76.59
21730;BME280;11027;51.030;13.812;2022-11-18T09:13:57;98911.34;;;5.49;76.01
21730;BME280;11027;51.030;13.812;2022-11-18T09:16:24;98920.19;;;5.43;76.02
21730;BME280;11027;51.030;13.812;2022-11-18T09:18:50;98916.69;;;5.34;76.05
21730;BME280;11027;51.030;13.812;2022-11-18T09:21:16;98920.06;;;5.36;75.99
21730;BME280;11027;51.030;13.812;2022-11-18T09:23:42;98925.28;;;5.38;75.83
21730;BME280;11027;51.030;13.812;2022-11-18T09:26:10;98926.13;;;5.38;75.76
21730;BME280;11027;51.030;13.812;2022-11-18T09:28:36;98925.47;;;5.36;75.67
21730;BME280;11027;51.030;13.812;2022-11-18T09:31:06;98937.00;;;5.22;75.70
21730;BME280;11027;51.030;13.812;2022-11-18T09:33:32;98932.97;;;5.18;75.85
21730;BME280;11027;51.030;13.812;2022-11-18T09:35:57;98939.88;;;5.20;75.85
21730;BME280;11027;51.030;13.812;2022-11-18T09:38:23;98941.38;;;5.23;75.61
21730;BME280;11027;51.030;13.812;2022-11-18T09:41:04;98944.78;;;5.25;75.55
21730;BME280;11027;51.030;13.812;2022-11-18T09:43:40;98955.09;;;5.21;75.42
21730;BME280;11027;51.030;13.812;2022-11-18T09:49:15;98957.94;;;5.20;75.11
21730;BME280;11027;51.030;13.812;2022-11-18T09:51:43;98961.66;;;5.19;74.85
21730;BME280;11027;51.030;13.812;2022-11-18T09:54:30;98972.44;;;5.19;74.80
21730;BME280;11027;51.030;13.812;2022-11-18T09:56:58;98970.78;;;5.18;74.69
21730;BME280;11027;51.030;13.812;2022-11-18T09:59:25;98980.25;;;5.14;74.73
21730;BME280;11027;51.030;13.812;2022-11-18T10:01:55;98986.16;;;5.17;74.57
21730;BME280;11027;51.030;13.812;2022-11-18T10:04:21;98977.53;;;5.14;74.16
21730;BME280;11027;51.030;13.812;2022-11-18T10:06:48;98982.31;;;5.04;73.80
21730;BME280;11027;51.030;13.812;2022-11-18T10:09:36;98986.53;;;4.98;73.51
21730;BME280;11027;51.030;13.812;2022-11-18T10:17:21;98994.53;;;4.83;74.01
21730;BME280;11027;51.030;13.812;2022-11-18T10:23:20;99001.59;;;4.84;74.01
21730;BME280;11027;51.030;13.812;2022-11-18T10:25:47;99003.63;;;4.82;73.74
21730;BME280;11027;51.030;13.812;2022-11-18T10:30:42;99009.38;;;4.79;73.79
21730;BME280;11027;51.030;13.812;2022-11-18T10:35:45;99010.06;;;4.73;73.40
21730;BME280;11027;51.030;13.812;2022-11-18T10:41:08;99023.88;;;4.61;74.04
21730;BME280;11027;51.030;13.812;2022-11-18T10:43:49;99021.38;;;4.44;74.00
21730;BME280;11027;51.030;13.812;2022-11-18T10:46:34;99025.25;;;4.33;73.97
21730;BME280;11027;51.030;13.812;2022-11-18T10:49:17;99020.69;;;4.25;74.10
21730;BME280;11027;51.030;13.812;2022-11-18T10:51:45;99022.56;;;4.25;74.25
21730;BME280;11027;51.030;13.812;2022-11-18T10:54:22;99025.78;;;4.36;74.58
21730;BME280;11027;51.030;13.812;2022-11-18T10:59:49;99031.47;;;4.50;74.20
21730;BME280;11027;51.030;13.812;2022-11-18T11:04:48;99046.16;;;4.55;74.16
21730;BME280;11027;51.030;13.812;2022-11-18T11:07:28;99041.59;;;4.56;74.11
21730;BME280;11027;51.030;13.812;2022-11-18T11:12:31;99056.59;;;4.58;74.09
21730;BME280;11027;51.030;13.812;2022-11-18T11:15:25;99058.44;;;4.58;74.07
21730;BME280;11027;51.030;13.812;2022-11-18T11:18:00;99065.03;;;4.55;73.99
21730;BME280;11027;51.030;13.812;2022-11-18T11:20:45;99070.44;;;4.55;73.62
21730;BME280;11027;51.030;13.812;2022-11-18T11:23:12;99068.56;;;4.56;73.58
21730;BME280;11027;51.030;13.812;2022-11-18T11:25:50;99069.41;;;4.56;73.54
21730;BME280;11027;51.030;13.812;2022-11-18T11:31:22;99081.22;;;4.47;73.11
21730;BME280;11027;51.030;13.812;2022-11-18T11:34:17;99085.94;;;4.37;72.84
21730;BME280;11027;51.030;13.812;2022-11-18T11:44:58;99096.38;;;4.40;73.04
21730;BME280;11027;51.030;13.812;2022-11-18T11:51:00;99099.06;;;4.32;72.91
21730;BME280;11027;51.030;13.812;2022-11-18T11:56:32;99101.06;;;4.30;72.79
21730;BME280;11027;51.030;13.812;2022-11-18T11:59:15;99105.63;;;4.37;72.70
21730;BME280;11027;51.030;13.812;2022-11-18T12:04:23;99100.09;;;4.39;72.11
21730;BME280;11027;51.030;13.812;2022-11-18T12:06:52;99104.47;;;4.48;71.81
21730;BME280;11027;51.030;13.812;2022-11-18T12:12:11;99104.81;;;4.45;71.22
21730;BME280;11027;51.030;13.812;2022-11-18T12:15:14;99104.47;;;4.48;71.07
21730;BME280;11027;51.030;13.812;2022-11-18T12:18:09;99104.13;;;4.51;71.09
21730;BME280;11027;51.030;13.812;2022-11-18T12:20:41;99107.16;;;4.56;71.03
21730;BME280;11027;51.030;13.812;2022-11-18T12:23:27;99111.25;;;4.60;70.96
21730;BME280;11027;51.030;13.812;2022-11-18T12:28:49;99121.66;;;4.55;70.64
21730;BME280;11027;51.030;13.812;2022-11-18T12:33:51;99123.69;;;4.53;70.65
21730;BME280;11027;51.030;13.812;2022-11-18T12:36:30;99127.38;;;4.52;70.65
21730;BME280;11027;51.030;13.812;2022-11-18T12:38:57;99129.75;;;4.47;70.67
21730;BME280;11027;51.030;13.812;2022-11-18T12:44:23;99136.09;;;4.21;70.24
21730;BME280;11027;51.030;13.812;2022-11-18T12:46:51;99137.13;;;4.12;70.23
21730;BME280;11027;51.030;13.812;2022-11-18T12:51:45;99144.13;;;3.97;70.46
21730;BME280;11027;51.030;13.812;2022-11-18T12:54:49;99145.09;;;3.88;70.57
21730;BME280;11027;51.030;13.812;2022-11-18T12:57:21;99152.66;;;3.76;70.47
21730;BME280;11027;51.030;13.812;2022-11-18T12:59:48;99158.16;;;3.66;70.55
21730;BME280;11027;51.030;13.812;2022-11-18T13:02:25;99156.25;;;3.58;70.74
21730;BME280;11027;51.030;13.812;2022-11-18T13:07:32;99159.81;;;3.67;71.23
21730;BME280;11027;51.030;13.812;2022-11-18T13:10:22;99171.47;;;3.68;71.02
21730;BME280;11027;51.030;13.812;2022-11-18T13:12:49;99170.56;;;3.59;70.80
21730;BME280;11027;51.030;13.812;2022-11-18T13:15:14;99174.97;;;3.60;70.94
21730;BME280;11027;51.030;13.812;2022-11-18T13:18:14;99169.22;;;3.63;70.84
21730;BME280;11027;51.030;13.812;2022-11-18T13:20:41;99172.59;;;3.65;70.82
21730;BME280;11027;51.030;13.812;2022-11-18T13:26:01;99179.69;;;3.66;70.73
21730;BME280;11027;51.030;13.812;2022-11-18T13:31:08;99180.22;;;3.70;70.80
21730;BME280;11027;51.030;13.812;2022-11-18T13:33:39;99191.00;;;3.70;70.57
21730;BME280;11027;51.030;13.812;2022-11-18T13:38:56;99203.72;;;3.59;70.29
21730;BME280;11027;51.030;13.812;2022-11-18T13:41:23;99211.28;;;3.56;70.49
21730;BME280;11027;51.030;13.812;2022-11-18T13:44:09;99214.91;;;3.47;70.54
21730;BME280;11027;51.030;13.812;2022-11-18T13:46:34;99212.22;;;3.47;70.42
21730;BME280;11027;51.030;13.812;2022-11-18T13:49:00;99224.38;;;3.51;70.29
21730;BME280;11027;51.030;13.812;2022-11-18T13:51:25;99216.28;;;3.51;70.25
21730;BME280;11027;51.030;13.812;2022-11-18T13:53:51;99224.72;;;3.48;70.41
21730;BME280;11027;51.030;13.812;2022-11-18T13:56:23;99229.56;;;3.44;70.78
21730;BME280;11027;51.030;13.812;2022-11-18T14:01:19;99234.09;;;3.44;70.57
21730;BME280;11027;51.030;13.812;2022-11-18T14:03:53;99242.88;;;3.46;70.57
21730;BME280;11027;51.030;13.812;2022-11-18T14:06:46;99253.25;;;3.40;70.24
21730;BME280;11027;51.030;13.812;2022-11-18T14:12:21;99268.03;;;3.36;69.95
21730;BME280;11027;51.030;13.812;2022-11-18T14:14:46;99275.34;;;3.26;69.57
21730;BME280;11027;51.030;13.812;2022-11-18T14:19:44;99275.91;;;3.12;69.61
21730;BME280;11027;51.030;13.812;2022-11-18T14:22:23;99271.84;;;3.08;69.90
21730;BME280;11027;51.030;13.812;2022-11-18T14:27:39;99278.75;;;2.92;68.76
21730;BME280;11027;51.030;13.812;2022-11-18T14:33:07;99275.69;;;2.87;68.75
21730;BME280;11027;51.030;13.812;2022-11-18T14:35:33;99279.06;;;2.89;68.58
21730;BME280;11027;51.030;13.812;2022-11-18T14:37:58;99279.56;;;2.93;68.90
21730;BME280;11027;51.030;13.812;2022-11-18T14:40:23;99284.53;;;2.97;68.94
21730;BME280;11027;51.030;13.812;2022-11-18T14:42:49;99289.75;;;2.99;68.58
21730;BME280;11027;51.030;13.812;2022-11-18T14:45:14;99286.06;;;3.00;68.32
21730;BME280;11027;51.030;13.812;2022-11-18T14:47:39;99287.22;;;2.97;68.31
21730;BME280;11027;51.030;13.812;2022-11-18T14:50:12;99294.28;;;2.98;68.18
21730;BME280;11027;51.030;13.812;2022-11-18T14:52:37;99291.03;;;2.95;67.96
21730;BME280;11027;51.030;13.812;2022-11-18T14:55:03;99294.88;;;2.92;68.27